Terminal Aerodrome Forecast
Issued by NWS North Platte, NE

Home | Current Version | Previous Version | Text Only | Print | Product List | Glossary On
Versions: 1 2 3 4 5 6 7 8 9 10 11 12
435
FTUS43 KLBF 272320
TAFVTN
TAF
KVTN 272320Z 2800/2824 19005KT P6SM BKN100
     FM280300 35005KT P6SM BKN070
     FM281200 32006KT P6SM BKN030
     FM281600 32006KT P6SM BKN020=

USA.gov is the U.S. government's official web portal to all federal, state and local government web resources and services.